sensor_id;sensor_type;location;lat;lon;timestamp;temperature;humidity
47226;DHT22;32965;64.142;-21.912;2022-07-11T00:00:13;12.30;99.90
47226;DHT22;32965;64.142;-21.912;2022-07-11T00:02:42;12.30;99.90
47226;DHT22;32965;64.142;-21.912;2022-07-11T00:05:09;12.30;99.90
47226;DHT22;32965;64.142;-21.912;2022-07-11T00:07:35;12.30;99.90
47226;DHT22;32965;64.142;-21.912;2022-07-11T00:10:02;12.20;99.90
47226;DHT22;32965;64.142;-21.912;2022-07-11T00:12:28;12.20;99.90
47226;DHT22;32965;64.142;-21.912;2022-07-11T00:14:55;12.20;99.90
47226;DHT22;32965;64.142;-21.912;2022-07-11T00:17:20;12.10;99.90
47226;DHT22;32965;64.142;-21.912;2022-07-11T00:19:46;12.10;99.90
47226;DHT22;32965;64.142;-21.912;2022-07-11T00:22:12;12.10;99.90
47226;DHT22;32965;64.142;-21.912;2022-07-11T00:24:38;12.10;99.90
47226;DHT22;32965;64.142;-21.912;2022-07-11T00:27:04;12.10;99.90
47226;DHT22;32965;64.142;-21.912;2022-07-11T00:29:31;12.10;99.90
47226;DHT22;32965;64.142;-21.912;2022-07-11T00:31:57;12.20;99.90
47226;DHT22;32965;64.142;-21.912;2022-07-11T00:34:24;12.20;99.90
47226;DHT22;32965;64.142;-21.912;2022-07-11T00:36:50;12.20;99.90
47226;DHT22;32965;64.142;-21.912;2022-07-11T00:39:16;12.10;99.90
47226;DHT22;32965;64.142;-21.912;2022-07-11T00:41:42;12.10;99.90
47226;DHT22;32965;64.142;-21.912;2022-07-11T00:44:08;12.10;99.90
47226;DHT22;32965;64.142;-21.912;2022-07-11T00:46:34;12.10;99.90
47226;DHT22;32965;64.142;-21.912;2022-07-11T00:49:00;12.10;99.90
47226;DHT22;32965;64.142;-21.912;2022-07-11T00:51:26;12.10;99.90
47226;DHT22;32965;64.142;-21.912;2022-07-11T00:53:57;12.20;99.90
47226;DHT22;32965;64.142;-21.912;2022-07-11T00:56:25;12.10;99.90
47226;DHT22;32965;64.142;-21.912;2022-07-11T00:58:53;12.10;99.90
47226;DHT22;32965;64.142;-21.912;2022-07-11T01:01:20;12.10;99.90
47226;DHT22;32965;64.142;-21.912;2022-07-11T01:03:46;12.10;99.90
47226;DHT22;32965;64.142;-21.912;2022-07-11T01:06:12;12.10;99.90
47226;DHT22;32965;64.142;-21.912;2022-07-11T01:08:39;12.10;99.90
47226;DHT22;32965;64.142;-21.912;2022-07-11T01:11:10;12.10;99.90
47226;DHT22;32965;64.142;-21.912;2022-07-11T01:13:38;12.10;99.90
47226;DHT22;32965;64.142;-21.912;2022-07-11T01:16:16;12.00;99.90
47226;DHT22;32965;64.142;-21.912;2022-07-11T01:18:43;12.00;99.90
47226;DHT22;32965;64.142;-21.912;2022-07-11T01:21:26;12.00;99.90
47226;DHT22;32965;64.142;-21.912;2022-07-11T01:23:56;12.00;99.90
47226;DHT22;32965;64.142;-21.912;2022-07-11T01:26:23;11.90;99.90
47226;DHT22;32965;64.142;-21.912;2022-07-11T01:28:50;11.90;99.90
47226;DHT22;32965;64.142;-21.912;2022-07-11T01:31:16;11.90;99.90
47226;DHT22;32965;64.142;-21.912;2022-07-11T01:33:42;11.90;99.90
47226;DHT22;32965;64.142;-21.912;2022-07-11T01:36:08;11.90;99.90
47226;DHT22;32965;64.142;-21.912;2022-07-11T01:38:35;11.90;99.90
47226;DHT22;32965;64.142;-21.912;2022-07-11T01:41:02;11.80;99.90
47226;DHT22;32965;64.142;-21.912;2022-07-11T01:43:28;11.80;99.90
47226;DHT22;32965;64.142;-21.912;2022-07-11T01:45:55;11.80;99.90
47226;DHT22;32965;64.142;-21.912;2022-07-11T01:48:21;11.80;99.90
47226;DHT22;32965;64.142;-21.912;2022-07-11T01:50:48;11.80;99.90
47226;DHT22;32965;64.142;-21.912;2022-07-11T01:53:14;11.80;99.90
47226;DHT22;32965;64.142;-21.912;2022-07-11T01:55:40;11.70;99.90
47226;DHT22;32965;64.142;-21.912;2022-07-11T01:58:06;11.80;99.90
47226;DHT22;32965;64.142;-21.912;2022-07-11T02:00:32;11.70;99.90
47226;DHT22;32965;64.142;-21.912;2022-07-11T02:02:59;11.70;99.90
47226;DHT22;32965;64.142;-21.912;2022-07-11T02:05:25;11.70;99.90
47226;DHT22;32965;64.142;-21.912;2022-07-11T02:07:51;11.70;99.90
47226;DHT22;32965;64.142;-21.912;2022-07-11T02:10:40;11.70;99.90
47226;DHT22;32965;64.142;-21.912;2022-07-11T02:13:07;11.70;99.90
47226;DHT22;32965;64.142;-21.912;2022-07-11T02:15:35;11.70;99.90
47226;DHT22;32965;64.142;-21.912;2022-07-11T02:18:01;11.70;99.90
47226;DHT22;32965;64.142;-21.912;2022-07-11T02:20:27;11.70;99.90
47226;DHT22;32965;64.142;-21.912;2022-07-11T02:22:53;11.70;99.90
47226;DHT22;32965;64.142;-21.912;2022-07-11T02:25:19;11.80;99.90
47226;DHT22;32965;64.142;-21.912;2022-07-11T02:27:45;11.80;99.90
47226;DHT22;32965;64.142;-21.912;2022-07-11T02:30:11;11.80;99.90
47226;DHT22;32965;64.142;-21.912;2022-07-11T02:32:37;11.80;99.90
47226;DHT22;32965;64.142;-21.912;2022-07-11T02:35:04;11.80;99.90
47226;DHT22;32965;64.142;-21.912;2022-07-11T02:37:30;11.70;99.90
47226;DHT22;32965;64.142;-21.912;2022-07-11T02:39:56;11.70;99.90
47226;DHT22;32965;64.142;-21.912;2022-07-11T02:42:22;11.70;99.90
47226;DHT22;32965;64.142;-21.912;2022-07-11T02:44:48;11.70;99.90
47226;DHT22;32965;64.142;-21.912;2022-07-11T02:47:13;11.70;99.90
47226;DHT22;32965;64.142;-21.912;2022-07-11T02:49:42;11.70;99.90
47226;DHT22;32965;64.142;-21.912;2022-07-11T02:52:08;11.70;99.90
47226;DHT22;32965;64.142;-21.912;2022-07-11T02:54:34;11.70;99.90
47226;DHT22;32965;64.142;-21.912;2022-07-11T02:57:00;11.70;99.90
47226;DHT22;32965;64.142;-21.912;2022-07-11T02:59:27;11.70;99.90
47226;DHT22;32965;64.142;-21.912;2022-07-11T03:01:52;11.70;99.90
47226;DHT22;32965;64.142;-21.912;2022-07-11T03:04:18;11.70;99.90
47226;DHT22;32965;64.142;-21.912;2022-07-11T03:06:44;11.70;99.90
47226;DHT22;32965;64.142;-21.912;2022-07-11T03:09:10;11.70;99.90
47226;DHT22;32965;64.142;-21.912;2022-07-11T03:11:36;11.70;99.90
47226;DHT22;32965;64.142;-21.912;2022-07-11T03:14:02;11.70;99.90
47226;DHT22;32965;64.142;-21.912;2022-07-11T03:16:28;11.60;99.90
47226;DHT22;32965;64.142;-21.912;2022-07-11T03:18:55;11.60;99.90
47226;DHT22;32965;64.142;-21.912;2022-07-11T03:21:22;11.60;99.90
47226;DHT22;32965;64.142;-21.912;2022-07-11T03:23:48;11.50;99.90
47226;DHT22;32965;64.142;-21.912;2022-07-11T03:26:16;11.50;99.90
47226;DHT22;32965;64.142;-21.912;2022-07-11T03:28:42;11.50;99.90
47226;DHT22;32965;64.142;-21.912;2022-07-11T03:31:07;11.50;99.90
47226;DHT22;32965;64.142;-21.912;2022-07-11T03:33:34;11.40;99.90
47226;DHT22;32965;64.142;-21.912;2022-07-11T03:36:00;11.50;99.90
47226;DHT22;32965;64.142;-21.912;2022-07-11T03:38:26;11.50;99.90
47226;DHT22;32965;64.142;-21.912;2022-07-11T03:40:51;11.50;99.90
47226;DHT22;32965;64.142;-21.912;2022-07-11T03:43:17;11.40;99.90
47226;DHT22;32965;64.142;-21.912;2022-07-11T03:45:43;11.40;99.90
47226;DHT22;32965;64.142;-21.912;2022-07-11T03:48:09;11.40;99.90
47226;DHT22;32965;64.142;-21.912;2022-07-11T03:50:35;11.40;99.90
47226;DHT22;32965;64.142;-21.912;2022-07-11T03:53:02;11.40;99.90
47226;DHT22;32965;64.142;-21.912;2022-07-11T03:55:28;11.40;99.90
47226;DHT22;32965;64.142;-21.912;2022-07-11T03:57:54;11.50;99.90
47226;DHT22;32965;64.142;-21.912;2022-07-11T04:00:20;11.40;99.90
47226;DHT22;32965;64.142;-21.912;2022-07-11T04:02:47;11.40;99.90
47226;DHT22;32965;64.142;-21.912;2022-07-11T04:05:13;11.50;99.90
47226;DHT22;32965;64.142;-21.912;2022-07-11T04:07:40;11.40;99.90
47226;DHT22;32965;64.142;-21.912;2022-07-11T04:10:08;11.40;99.90
47226;DHT22;32965;64.142;-21.912;2022-07-11T04:12:34;11.40;99.90
47226;DHT22;32965;64.142;-21.912;2022-07-11T04:15:00;11.40;99.90
47226;DHT22;32965;64.142;-21.912;2022-07-11T04:17:26;11.40;99.90
47226;DHT22;32965;64.142;-21.912;2022-07-11T04:19:53;11.40;99.90
47226;DHT22;32965;64.142;-21.912;2022-07-11T04:22:19;11.40;99.90
47226;DHT22;32965;64.142;-21.912;2022-07-11T04:24:45;11.40;99.90
47226;DHT22;32965;64.142;-21.912;2022-07-11T04:27:11;11.50;99.90
47226;DHT22;32965;64.142;-21.912;2022-07-11T04:29:37;11.40;99.90
47226;DHT22;32965;64.142;-21.912;2022-07-11T04:32:03;11.40;99.90
47226;DHT22;32965;64.142;-21.912;2022-07-11T04:34:28;11.50;99.90
47226;DHT22;32965;64.142;-21.912;2022-07-11T04:36:54;11.50;99.90
47226;DHT22;32965;64.142;-21.912;2022-07-11T04:39:20;11.40;99.90
47226;DHT22;32965;64.142;-21.912;2022-07-11T04:41:45;11.40;99.90
47226;DHT22;32965;64.142;-21.912;2022-07-11T04:44:11;11.40;99.90
47226;DHT22;32965;64.142;-21.912;2022-07-11T04:46:38;11.40;99.90
47226;DHT22;32965;64.142;-21.912;2022-07-11T04:49:04;11.50;99.90
47226;DHT22;32965;64.142;-21.912;2022-07-11T04:51:29;11.50;99.90
47226;DHT22;32965;64.142;-21.912;2022-07-11T04:53:55;11.50;99.90
47226;DHT22;32965;64.142;-21.912;2022-07-11T04:56:21;11.50;99.90
47226;DHT22;32965;64.142;-21.912;2022-07-11T04:58:47;11.50;99.90
47226;DHT22;32965;64.142;-21.912;2022-07-11T05:01:12;11.50;99.90
47226;DHT22;32965;64.142;-21.912;2022-07-11T05:03:38;11.50;99.90
47226;DHT22;32965;64.142;-21.912;2022-07-11T05:06:05;11.40;99.90
47226;DHT22;32965;64.142;-21.912;2022-07-11T05:08:32;11.50;99.90
47226;DHT22;32965;64.142;-21.912;2022-07-11T05:11:02;11.50;99.90
47226;DHT22;32965;64.142;-21.912;2022-07-11T05:13:31;11.50;99.90
47226;DHT22;32965;64.142;-21.912;2022-07-11T05:15:57;11.40;99.90
47226;DHT22;32965;64.142;-21.912;2022-07-11T05:18:23;11.40;99.90
47226;DHT22;32965;64.142;-21.912;2022-07-11T05:20:49;11.40;99.90
47226;DHT22;32965;64.142;-21.912;2022-07-11T05:23:15;11.40;99.90
47226;DHT22;32965;64.142;-21.912;2022-07-11T05:25:41;11.40;99.90
47226;DHT22;32965;64.142;-21.912;2022-07-11T05:28:08;11.50;99.90
47226;DHT22;32965;64.142;-21.912;2022-07-11T05:30:34;11.50;99.90
47226;DHT22;32965;64.142;-21.912;2022-07-11T05:33:00;11.50;99.90
47226;DHT22;32965;64.142;-21.912;2022-07-11T05:35:26;11.50;99.90
47226;DHT22;32965;64.142;-21.912;2022-07-11T05:37:52;11.60;99.90
47226;DHT22;32965;64.142;-21.912;2022-07-11T05:40:18;11.60;99.90
47226;DHT22;32965;64.142;-21.912;2022-07-11T05:42:43;11.70;99.90
47226;DHT22;32965;64.142;-21.912;2022-07-11T05:45:10;11.70;99.90
47226;DHT22;32965;64.142;-21.912;2022-07-11T05:47:35;11.80;99.90
47226;DHT22;32965;64.142;-21.912;2022-07-11T05:50:01;11.80;99.90
47226;DHT22;32965;64.142;-21.912;2022-07-11T05:52:27;11.90;99.90
47226;DHT22;32965;64.142;-21.912;2022-07-11T05:54:53;11.90;99.90
47226;DHT22;32965;64.142;-21.912;2022-07-11T05:57:21;12.00;99.90
47226;DHT22;32965;64.142;-21.912;2022-07-11T05:59:47;12.00;99.90
47226;DHT22;32965;64.142;-21.912;2022-07-11T06:02:14;12.00;99.90
47226;DHT22;32965;64.142;-21.912;2022-07-11T06:04:40;12.00;99.90
47226;DHT22;32965;64.142;-21.912;2022-07-11T06:07:08;12.00;99.90
47226;DHT22;32965;64.142;-21.912;2022-07-11T06:09:34;12.00;99.90
47226;DHT22;32965;64.142;-21.912;2022-07-11T06:12:00;12.00;99.90
47226;DHT22;32965;64.142;-21.912;2022-07-11T06:14:26;12.00;99.90
47226;DHT22;32965;64.142;-21.912;2022-07-11T06:16:52;12.00;99.90
47226;DHT22;32965;64.142;-21.912;2022-07-11T06:19:18;12.00;99.90
47226;DHT22;32965;64.142;-21.912;2022-07-11T06:21:44;12.00;99.90
47226;DHT22;32965;64.142;-21.912;2022-07-11T06:24:10;12.00;99.90
47226;DHT22;32965;64.142;-21.912;2022-07-11T06:26:36;12.00;99.90
47226;DHT22;32965;64.142;-21.912;2022-07-11T06:29:03;12.00;99.90
47226;DHT22;32965;64.142;-21.912;2022-07-11T06:31:29;12.00;99.90
47226;DHT22;32965;64.142;-21.912;2022-07-11T06:33:57;12.00;99.90
47226;DHT22;32965;64.142;-21.912;2022-07-11T06:36:27;12.00;99.90
47226;DHT22;32965;64.142;-21.912;2022-07-11T06:38:54;12.00;99.90
47226;DHT22;32965;64.142;-21.912;2022-07-11T06:41:21;12.00;99.90
47226;DHT22;32965;64.142;-21.912;2022-07-11T06:43:47;12.00;99.90
47226;DHT22;32965;64.142;-21.912;2022-07-11T06:46:14;12.00;99.90
47226;DHT22;32965;64.142;-21.912;2022-07-11T06:48:41;12.10;99.90
47226;DHT22;32965;64.142;-21.912;2022-07-11T06:51:07;12.10;99.90
47226;DHT22;32965;64.142;-21.912;2022-07-11T06:53:34;12.10;99.90
47226;DHT22;32965;64.142;-21.912;2022-07-11T06:55:59;12.20;99.90
47226;DHT22;32965;64.142;-21.912;2022-07-11T06:58:25;12.20;99.90
47226;DHT22;32965;64.142;-21.912;2022-07-11T07:01:04;12.20;99.90
47226;DHT22;32965;64.142;-21.912;2022-07-11T07:03:33;12.20;99.90
47226;DHT22;32965;64.142;-21.912;2022-07-11T07:05:59;12.20;99.90
47226;DHT22;32965;64.142;-21.912;2022-07-11T07:08:27;12.20;99.90
47226;DHT22;32965;64.142;-21.912;2022-07-11T07:10:53;12.20;99.90
47226;DHT22;32965;64.142;-21.912;2022-07-11T07:13:20;12.30;99.90
47226;DHT22;32965;64.142;-21.912;2022-07-11T07:15:50;12.30;99.90
47226;DHT22;32965;64.142;-21.912;2022-07-11T07:18:16;12.40;99.90
47226;DHT22;32965;64.142;-21.912;2022-07-11T07:20:41;12.50;99.90
47226;DHT22;32965;64.142;-21.912;2022-07-11T07:23:08;12.60;99.90
47226;DHT22;32965;64.142;-21.912;2022-07-11T07:25:34;12.70;99.90
47226;DHT22;32965;64.142;-21.912;2022-07-11T07:27:59;12.90;99.90
47226;DHT22;32965;64.142;-21.912;2022-07-11T07:30:25;13.00;99.50
47226;DHT22;32965;64.142;-21.912;2022-07-11T07:32:51;13.10;99.30
47226;DHT22;32965;64.142;-21.912;2022-07-11T07:35:17;13.20;99.20
47226;DHT22;32965;64.142;-21.912;2022-07-11T07:37:43;13.40;99.00
47226;DHT22;32965;64.142;-21.912;2022-07-11T07:40:09;13.50;98.70
47226;DHT22;32965;64.142;-21.912;2022-07-11T07:42:36;13.50;98.40
47226;DHT22;32965;64.142;-21.912;2022-07-11T07:45:02;13.60;98.00
47226;DHT22;32965;64.142;-21.912;2022-07-11T07:47:28;13.50;97.50
47226;DHT22;32965;64.142;-21.912;2022-07-11T07:49:55;13.50;97.30
47226;DHT22;32965;64.142;-21.912;2022-07-11T07:52:20;13.50;96.60
47226;DHT22;32965;64.142;-21.912;2022-07-11T07:54:46;13.40;96.60
47226;DHT22;32965;64.142;-21.912;2022-07-11T07:57:13;13.40;96.60
47226;DHT22;32965;64.142;-21.912;2022-07-11T07:59:39;13.30;96.70
47226;DHT22;32965;64.142;-21.912;2022-07-11T08:02:05;13.30;96.50
47226;DHT22;32965;64.142;-21.912;2022-07-11T08:04:31;13.30;96.40
47226;DHT22;32965;64.142;-21.912;2022-07-11T08:06:56;13.30;96.40
47226;DHT22;32965;64.142;-21.912;2022-07-11T08:09:24;13.20;96.40
47226;DHT22;32965;64.142;-21.912;2022-07-11T08:11:50;13.20;96.20
47226;DHT22;32965;64.142;-21.912;2022-07-11T08:14:16;13.20;96.50
47226;DHT22;32965;64.142;-21.912;2022-07-11T08:16:42;13.20;96.50
47226;DHT22;32965;64.142;-21.912;2022-07-11T08:19:08;13.20;96.40
47226;DHT22;32965;64.142;-21.912;2022-07-11T08:21:35;13.30;96.50
47226;DHT22;32965;64.142;-21.912;2022-07-11T08:24:01;13.30;96.00
47226;DHT22;32965;64.142;-21.912;2022-07-11T08:26:27;13.30;96.00
47226;DHT22;32965;64.142;-21.912;2022-07-11T08:28:53;13.30;96.00
47226;DHT22;32965;64.142;-21.912;2022-07-11T08:31:19;13.30;96.20
47226;DHT22;32965;64.142;-21.912;2022-07-11T08:33:45;13.40;96.20
47226;DHT22;32965;64.142;-21.912;2022-07-11T08:36:11;13.40;96.20
47226;DHT22;32965;64.142;-21.912;2022-07-11T08:38:38;13.50;96.20
47226;DHT22;32965;64.142;-21.912;2022-07-11T08:41:05;13.50;95.90
47226;DHT22;32965;64.142;-21.912;2022-07-11T08:43:31;13.50;95.80
47226;DHT22;32965;64.142;-21.912;2022-07-11T08:45:59;13.50;95.50
47226;DHT22;32965;64.142;-21.912;2022-07-11T08:48:26;13.60;95.70
47226;DHT22;32965;64.142;-21.912;2022-07-11T08:50:52;13.60;95.50
47226;DHT22;32965;64.142;-21.912;2022-07-11T08:53:18;13.60;95.50
47226;DHT22;32965;64.142;-21.912;2022-07-11T08:55:44;13.60;95.50
47226;DHT22;32965;64.142;-21.912;2022-07-11T08:58:11;13.60;95.30
47226;DHT22;32965;64.142;-21.912;2022-07-11T09:00:38;13.70;95.40
47226;DHT22;32965;64.142;-21.912;2022-07-11T09:03:04;13.70;95.40
47226;DHT22;32965;64.142;-21.912;2022-07-11T09:05:32;13.60;95.10
47226;DHT22;32965;64.142;-21.912;2022-07-11T09:07:57;13.60;94.80
47226;DHT22;32965;64.142;-21.912;2022-07-11T09:10:25;13.60;94.70
47226;DHT22;32965;64.142;-21.912;2022-07-11T09:13:07;13.60;94.90
47226;DHT22;32965;64.142;-21.912;2022-07-11T09:15:50;13.70;95.00
47226;DHT22;32965;64.142;-21.912;2022-07-11T09:20:56;13.90;94.80
47226;DHT22;32965;64.142;-21.912;2022-07-11T09:23:42;13.80;94.60
47226;DHT22;32965;64.142;-21.912;2022-07-11T09:26:35;13.80;94.70
47226;DHT22;32965;64.142;-21.912;2022-07-11T09:29:12;13.80;94.70
47226;DHT22;32965;64.142;-21.912;2022-07-11T09:31:40;13.80;94.90
47226;DHT22;32965;64.142;-21.912;2022-07-11T09:34:07;13.70;95.00
47226;DHT22;32965;64.142;-21.912;2022-07-11T09:36:47;13.70;95.20
47226;DHT22;32965;64.142;-21.912;2022-07-11T09:39:18;13.80;95.40
47226;DHT22;32965;64.142;-21.912;2022-07-11T09:41:46;13.80;95.50
47226;DHT22;32965;64.142;-21.912;2022-07-11T09:46:51;13.70;95.30
47226;DHT22;32965;64.142;-21.912;2022-07-11T09:49:29;13.70;95.60
47226;DHT22;32965;64.142;-21.912;2022-07-11T09:51:55;13.80;95.50
47226;DHT22;32965;64.142;-21.912;2022-07-11T09:54:31;13.80;95.40
47226;DHT22;32965;64.142;-21.912;2022-07-11T09:56:57;13.80;95.60
47226;DHT22;32965;64.142;-21.912;2022-07-11T09:59:22;13.80;95.40
47226;DHT22;32965;64.142;-21.912;2022-07-11T10:01:48;13.80;95.50
47226;DHT22;32965;64.142;-21.912;2022-07-11T10:04:14;13.90;95.80
47226;DHT22;32965;64.142;-21.912;2022-07-11T10:06:40;14.00;95.90
47226;DHT22;32965;64.142;-21.912;2022-07-11T10:09:06;14.00;96.00
47226;DHT22;32965;64.142;-21.912;2022-07-11T10:11:33;14.20;96.10
47226;DHT22;32965;64.142;-21.912;2022-07-11T10:14:00;14.30;95.80
47226;DHT22;32965;64.142;-21.912;2022-07-11T10:16:38;14.30;95.00
47226;DHT22;32965;64.142;-21.912;2022-07-11T10:27:21;14.80;94.20
47226;DHT22;32965;64.142;-21.912;2022-07-11T10:29:51;14.90;93.50
47226;DHT22;32965;64.142;-21.912;2022-07-11T10:32:17;14.80;93.50
47226;DHT22;32965;64.142;-21.912;2022-07-11T10:34:45;14.90;93.60
47226;DHT22;32965;64.142;-21.912;2022-07-11T10:37:13;14.90;93.40
47226;DHT22;32965;64.142;-21.912;2022-07-11T10:39:39;14.90;93.00
47226;DHT22;32965;64.142;-21.912;2022-07-11T10:42:21;14.90;92.80
47226;DHT22;32965;64.142;-21.912;2022-07-11T10:44:56;14.80;92.90
47226;DHT22;32965;64.142;-21.912;2022-07-11T10:52:49;14.70;92.90
47226;DHT22;32965;64.142;-21.912;2022-07-11T10:58:08;14.80;92.90
47226;DHT22;32965;64.142;-21.912;2022-07-11T11:00:36;14.90;92.90
47226;DHT22;32965;64.142;-21.912;2022-07-11T11:03:07;14.90;92.70
47226;DHT22;32965;64.142;-21.912;2022-07-11T11:14:22;15.30;91.40
47226;DHT22;32965;64.142;-21.912;2022-07-11T11:16:49;15.40;90.90
47226;DHT22;32965;64.142;-21.912;2022-07-11T11:19:53;15.40;90.70
47226;DHT22;32965;64.142;-21.912;2022-07-11T11:22:21;15.40;90.40
47226;DHT22;32965;64.142;-21.912;2022-07-11T11:24:50;15.50;90.70
47226;DHT22;32965;64.142;-21.912;2022-07-11T11:27:21;15.50;90.50
47226;DHT22;32965;64.142;-21.912;2022-07-11T11:29:51;15.40;90.30
47226;DHT22;32965;64.142;-21.912;2022-07-11T11:32:18;15.30;90.00
47226;DHT22;32965;64.142;-21.912;2022-07-11T11:34:44;15.30;90.50
47226;DHT22;32965;64.142;-21.912;2022-07-11T11:37:10;15.30;90.60
47226;DHT22;32965;64.142;-21.912;2022-07-11T11:39:38;15.30;90.80
47226;DHT22;32965;64.142;-21.912;2022-07-11T11:42:12;15.40;90.70
47226;DHT22;32965;64.142;-21.912;2022-07-11T11:44:55;15.30;90.20
47226;DHT22;32965;64.142;-21.912;2022-07-11T11:47:22;15.30;90.10
47226;DHT22;32965;64.142;-21.912;2022-07-11T11:49:49;15.30;90.50
47226;DHT22;32965;64.142;-21.912;2022-07-11T11:52:16;15.30;90.40
47226;DHT22;32965;64.142;-21.912;2022-07-11T11:54:43;15.50;90.40
47226;DHT22;32965;64.142;-21.912;2022-07-11T11:57:11;15.50;90.20
47226;DHT22;32965;64.142;-21.912;2022-07-11T11:59:38;15.70;90.10
47226;DHT22;32965;64.142;-21.912;2022-07-11T12:02:04;15.80;89.80
47226;DHT22;32965;64.142;-21.912;2022-07-11T12:04:31;15.90;89.00
47226;DHT22;32965;64.142;-21.912;2022-07-11T12:06:58;15.90;87.50
47226;DHT22;32965;64.142;-21.912;2022-07-11T12:09:25;16.00;87.50
47226;DHT22;32965;64.142;-21.912;2022-07-11T12:12:09;16.00;87.30
47226;DHT22;32965;64.142;-21.912;2022-07-11T12:14:54;16.10;87.40
47226;DHT22;32965;64.142;-21.912;2022-07-11T12:17:24;16.20;86.90
47226;DHT22;32965;64.142;-21.912;2022-07-11T12:19:50;16.40;86.20
47226;DHT22;32965;64.142;-21.912;2022-07-11T12:22:16;16.50;84.80
47226;DHT22;32965;64.142;-21.912;2022-07-11T12:24:50;16.60;84.00
47226;DHT22;32965;64.142;-21.912;2022-07-11T12:27:25;16.70;84.00
47226;DHT22;32965;64.142;-21.912;2022-07-11T12:29:51;16.90;83.30
47226;DHT22;32965;64.142;-21.912;2022-07-11T12:32:19;17.00;82.40
47226;DHT22;32965;64.142;-21.912;2022-07-11T12:34:46;17.10;82.30
47226;DHT22;32965;64.142;-21.912;2022-07-11T12:37:15;17.20;81.40
47226;DHT22;32965;64.142;-21.912;2022-07-11T12:39:57;17.20;80.80
47226;DHT22;32965;64.142;-21.912;2022-07-11T12:42:31;17.20;80.90
47226;DHT22;32965;64.142;-21.912;2022-07-11T12:45:03;17.20;80.20
47226;DHT22;32965;64.142;-21.912;2022-07-11T12:47:37;17.30;79.50
47226;DHT22;32965;64.142;-21.912;2022-07-11T12:50:11;17.30;78.40
47226;DHT22;32965;64.142;-21.912;2022-07-11T12:52:40;17.30;78.90
47226;DHT22;32965;64.142;-21.912;2022-07-11T12:55:08;17.30;78.60
47226;DHT22;32965;64.142;-21.912;2022-07-11T12:57:37;17.40;78.20
47226;DHT22;32965;64.142;-21.912;2022-07-11T13:00:14;17.50;77.20
47226;DHT22;32965;64.142;-21.912;2022-07-11T13:02:51;17.60;76.90
47226;DHT22;32965;64.142;-21.912;2022-07-11T13:05:18;17.50;76.40
47226;DHT22;32965;64.142;-21.912;2022-07-11T13:07:45;17.40;76.90
47226;DHT22;32965;64.142;-21.912;2022-07-11T13:10:29;17.30;75.50
47226;DHT22;32965;64.142;-21.912;2022-07-11T13:13:14;17.00;77.00
47226;DHT22;32965;64.142;-21.912;2022-07-11T13:15:40;17.00;77.60
47226;DHT22;32965;64.142;-21.912;2022-07-11T13:18:06;17.10;78.00
47226;DHT22;32965;64.142;-21.912;2022-07-11T13:20:34;17.10;77.90
47226;DHT22;32965;64.142;-21.912;2022-07-11T13:23:01;17.10;76.40
47226;DHT22;32965;64.142;-21.912;2022-07-11T13:25:28;17.00;76.10
47226;DHT22;32965;64.142;-21.912;2022-07-11T13:27:55;16.90;76.00
47226;DHT22;32965;64.142;-21.912;2022-07-11T13:30:22;16.70;76.60
47226;DHT22;32965;64.142;-21.912;2022-07-11T13:32:52;16.70;77.30
47226;DHT22;32965;64.142;-21.912;2022-07-11T13:35:18;16.70;78.10
47226;DHT22;32965;64.142;-21.912;2022-07-11T13:37:46;16.70;78.70
47226;DHT22;32965;64.142;-21.912;2022-07-11T13:40:17;16.80;78.80
47226;DHT22;32965;64.142;-21.912;2022-07-11T13:42:44;16.80;77.80
47226;DHT22;32965;64.142;-21.912;2022-07-11T13:45:20;16.60;78.60
47226;DHT22;32965;64.142;-21.912;2022-07-11T13:47:47;16.40;80.20
47226;DHT22;32965;64.142;-21.912;2022-07-11T13:50:14;16.30;80.70
47226;DHT22;32965;64.142;-21.912;2022-07-11T13:52:40;16.20;82.00
47226;DHT22;32965;64.142;-21.912;2022-07-11T13:55:06;16.10;82.70
47226;DHT22;32965;64.142;-21.912;2022-07-11T13:57:33;16.10;83.30
47226;DHT22;32965;64.142;-21.912;2022-07-11T13:59:59;16.10;82.60
47226;DHT22;32965;64.142;-21.912;2022-07-11T14:02:25;16.00;83.70
47226;DHT22;32965;64.142;-21.912;2022-07-11T14:04:51;16.00;84.20
47226;DHT22;32965;64.142;-21.912;2022-07-11T14:07:17;15.90;84.50
47226;DHT22;32965;64.142;-21.912;2022-07-11T14:09:43;15.80;85.10
47226;DHT22;32965;64.142;-21.912;2022-07-11T14:12:08;15.70;86.10
47226;DHT22;32965;64.142;-21.912;2022-07-11T14:14:35;15.60;87.80
47226;DHT22;32965;64.142;-21.912;2022-07-11T14:17:02;15.50;89.70
47226;DHT22;32965;64.142;-21.912;2022-07-11T14:19:28;15.30;90.80
47226;DHT22;32965;64.142;-21.912;2022-07-11T14:21:54;15.20;91.50
47226;DHT22;32965;64.142;-21.912;2022-07-11T14:24:20;15.10;92.10
47226;DHT22;32965;64.142;-21.912;2022-07-11T14:26:47;15.10;92.40
47226;DHT22;32965;64.142;-21.912;2022-07-11T14:29:15;15.20;92.50
47226;DHT22;32965;64.142;-21.912;2022-07-11T14:31:41;15.20;92.50
47226;DHT22;32965;64.142;-21.912;2022-07-11T14:34:07;15.10;92.60
47226;DHT22;32965;64.142;-21.912;2022-07-11T14:36:33;15.00;92.70
47226;DHT22;32965;64.142;-21.912;2022-07-11T14:38:58;14.90;92.80
47226;DHT22;32965;64.142;-21.912;2022-07-11T14:41:24;14.90;92.90
47226;DHT22;32965;64.142;-21.912;2022-07-11T14:43:51;14.90;92.90
47226;DHT22;32965;64.142;-21.912;2022-07-11T14:46:17;14.90;92.90
47226;DHT22;32965;64.142;-21.912;2022-07-11T14:48:43;15.00;92.40
47226;DHT22;32965;64.142;-21.912;2022-07-11T14:51:09;15.00;92.20
47226;DHT22;32965;64.142;-21.912;2022-07-11T14:53:36;15.10;92.30
47226;DHT22;32965;64.142;-21.912;2022-07-11T14:56:02;15.10;92.40
47226;DHT22;32965;64.142;-21.912;2022-07-11T14:58:28;15.20;92.20
47226;DHT22;32965;64.142;-21.912;2022-07-11T15:00:54;15.40;91.80
47226;DHT22;32965;64.142;-21.912;2022-07-11T15:03:20;15.50;91.60
47226;DHT22;32965;64.142;-21.912;2022-07-11T15:06:08;15.60;91.60
47226;DHT22;32965;64.142;-21.912;2022-07-11T15:08:35;15.80;90.90
47226;DHT22;32965;64.142;-21.912;2022-07-11T15:11:20;15.90;90.90
47226;DHT22;32965;64.142;-21.912;2022-07-11T15:14:05;15.90;91.30
47226;DHT22;32965;64.142;-21.912;2022-07-11T15:16:32;15.70;91.90
47226;DHT22;32965;64.142;-21.912;2022-07-11T15:19:00;15.50;92.60
47226;DHT22;32965;64.142;-21.912;2022-07-11T15:21:26;15.40;92.90
47226;DHT22;32965;64.142;-21.912;2022-07-11T15:23:52;15.30;92.90
47226;DHT22;32965;64.142;-21.912;2022-07-11T15:26:18;15.30;93.10
47226;DHT22;32965;64.142;-21.912;2022-07-11T15:28:44;15.20;93.50
47226;DHT22;32965;64.142;-21.912;2022-07-11T15:31:11;15.10;93.70
47226;DHT22;32965;64.142;-21.912;2022-07-11T15:33:41;15.10;94.00
47226;DHT22;32965;64.142;-21.912;2022-07-11T15:36:12;15.10;94.00